createdAt,value
2023-02-11T00:02:05.995Z,227.60
2023-02-11T00:04:34.664Z,79.40
2023-02-11T00:07:03.561Z,78.45
2023-02-11T00:09:32.660Z,73.82
2023-02-11T00:12:01.344Z,44.58
2023-02-11T00:14:30.162Z,43.42
2023-02-11T00:16:58.888Z,39.85
2023-02-11T00:19:27.518Z,42.00
2023-02-11T00:21:56.158Z,59.30
2023-02-11T00:24:25.048Z,84.45
2023-02-11T00:26:55.999Z,108.53
2023-02-11T00:29:25.681Z,95.43
2023-02-11T00:31:54.390Z,68.85
2023-02-11T00:34:26.122Z,93.00
2023-02-11T00:36:55.655Z,69.60
2023-02-11T00:39:28.634Z,65.45
2023-02-11T00:41:57.654Z,55.42
2023-02-11T00:44:28.797Z,41.15
2023-02-11T00:46:57.375Z,52.58
2023-02-11T00:49:26.213Z,46.10
2023-02-11T00:51:54.783Z,43.22
2023-02-11T00:54:23.514Z,49.70
2023-02-11T00:56:52.021Z,52.85
2023-02-11T00:59:20.856Z,51.78
2023-02-11T01:01:49.621Z,42.70
2023-02-11T01:04:18.412Z,46.78
2023-02-11T01:06:47.259Z,69.50
2023-02-11T01:09:15.935Z,84.90
2023-02-11T01:11:45.077Z,64.25
2023-02-11T01:14:13.767Z,59.40
2023-02-11T01:16:42.606Z,59.05
2023-02-11T01:19:11.239Z,65.38
2023-02-11T01:21:39.902Z,37.30
2023-02-11T01:24:08.809Z,56.08
2023-02-11T01:26:37.792Z,52.95
2023-02-11T01:29:06.482Z,62.88
2023-02-11T01:31:35.301Z,56.45
2023-02-11T01:34:04.119Z,58.05
2023-02-11T01:36:32.748Z,57.17
2023-02-11T01:39:01.982Z,63.08
2023-02-11T01:41:30.738Z,72.32
2023-02-11T01:43:59.249Z,46.97
2023-02-11T01:46:38.553Z,56.53
2023-02-11T01:49:22.371Z,49.80
2023-02-11T01:55:18.969Z,41.13
2023-02-11T01:57:53.494Z,41.53
2023-02-11T02:00:39.904Z,36.60
2023-02-11T02:03:23.334Z,50.08
2023-02-11T02:06:00.309Z,44.45
2023-02-11T02:08:57.902Z,44.92
2023-02-11T02:11:26.940Z,38.75
2023-02-11T02:13:55.888Z,51.00
2023-02-11T02:16:33.368Z,42.55
2023-02-11T02:19:21.385Z,56.97
2023-02-11T02:21:53.073Z,42.55
2023-02-11T02:24:59.478Z,44.63
2023-02-11T02:27:50.309Z,41.70
2023-02-11T02:30:40.935Z,42.17
2023-02-11T02:33:38.571Z,36.33
2023-02-11T02:36:22.518Z,57.17
2023-02-11T02:39:01.492Z,45.20
2023-02-11T02:41:33.847Z,63.30
2023-02-11T02:44:03.433Z,87.80
2023-02-11T02:46:34.589Z,77.07
2023-02-11T02:49:03.479Z,111.07
2023-02-11T02:51:59.095Z,106.00
2023-02-11T02:55:05.933Z,80.50
2023-02-11T02:58:06.593Z,80.07
2023-02-11T03:01:07.539Z,62.00
2023-02-11T03:03:54.929Z,67.97
2023-02-11T03:06:53.400Z,98.55
2023-02-11T03:09:38.720Z,104.53
2023-02-11T03:12:09.804Z,124.45
2023-02-11T03:14:39.806Z,66.82
2023-02-11T03:17:10.162Z,165.38
2023-02-11T03:19:45.564Z,86.32
2023-02-11T03:22:38.480Z,55.45
2023-02-11T03:25:07.799Z,82.93
2023-02-11T03:27:53.163Z,77.47
2023-02-11T03:30:33.980Z,59.10
2023-02-11T03:33:15.480Z,70.53
2023-02-11T03:35:51.892Z,69.45
2023-02-11T03:38:39.126Z,61.78
2023-02-11T03:41:10.743Z,65.28
2023-02-11T03:43:47.261Z,62.17
2023-02-11T03:46:20.613Z,52.63
2023-02-11T03:49:03.770Z,60.83
2023-02-11T03:51:37.086Z,30.63
2023-02-11T03:54:11.647Z,48.58
2023-02-11T03:56:51.935Z,47.10
2023-02-11T03:59:20.625Z,53.58
2023-02-11T04:01:52.081Z,47.40
2023-02-11T04:04:21.163Z,46.30
2023-02-11T04:06:49.951Z,47.38
2023-02-11T04:09:18.600Z,57.33
2023-02-11T04:11:47.425Z,51.10
2023-02-11T04:14:16.102Z,68.15
2023-02-11T04:16:45.379Z,48.30
2023-02-11T04:19:14.288Z,69.40
2023-02-11T04:21:42.714Z,71.82
2023-02-11T04:24:11.828Z,68.13
2023-02-11T04:26:40.974Z,45.47
2023-02-11T04:29:09.900Z,76.85
2023-02-11T04:31:38.455Z,87.00
2023-02-11T04:34:07.547Z,100.78
2023-02-11T04:36:36.540Z,78.60
2023-02-11T04:39:05.763Z,73.90
2023-02-11T04:41:34.984Z,44.80
2023-02-11T04:44:03.846Z,54.55
2023-02-11T04:46:32.658Z,59.10
2023-02-11T04:49:01.452Z,63.15
2023-02-11T04:51:30.962Z,52.05
2023-02-11T04:53:59.601Z,82.47
2023-02-11T04:56:28.384Z,58.08
2023-02-11T04:58:59.463Z,80.85
2023-02-11T05:01:28.166Z,80.55
2023-02-11T05:03:57.920Z,63.65
2023-02-11T05:06:26.869Z,67.50
2023-02-11T05:08:55.600Z,53.42
2023-02-11T05:11:28.712Z,28.63
2023-02-11T05:13:58.022Z,66.68
2023-02-11T05:16:26.834Z,66.65
2023-02-11T05:18:56.629Z,69.80
2023-02-11T05:21:26.023Z,96.28
2023-02-11T05:23:54.861Z,61.60
2023-02-11T05:26:23.655Z,71.93
2023-02-11T05:28:52.223Z,52.38
2023-02-11T05:31:21.218Z,77.22
2023-02-11T05:33:49.790Z,77.05
2023-02-11T05:36:18.760Z,83.38
2023-02-11T05:38:49.785Z,56.47
2023-02-11T05:41:18.444Z,62.25
2023-02-11T05:43:51.731Z,68.03
2023-02-11T05:46:20.769Z,66.53
2023-02-11T05:48:49.526Z,65.80
2023-02-11T05:51:18.321Z,75.05
2023-02-11T05:53:47.090Z,64.90
2023-02-11T05:56:16.011Z,61.38
2023-02-11T05:58:44.737Z,71.45
2023-02-11T06:01:13.956Z,71.13
2023-02-11T06:03:42.874Z,72.75
2023-02-11T06:06:13.630Z,71.00
2023-02-11T06:08:42.510Z,66.38
2023-02-11T06:11:16.256Z,81.20
2023-02-11T06:13:45.161Z,84.07
2023-02-11T06:16:14.169Z,77.95
2023-02-11T06:18:43.142Z,69.47
2023-02-11T06:21:13.168Z,79.35
2023-02-11T06:23:42.450Z,68.03
2023-02-11T06:26:22.448Z,49.65
2023-02-11T06:28:51.491Z,65.88
2023-02-11T06:31:20.641Z,51.60
2023-02-11T06:33:50.948Z,52.90
2023-02-11T06:36:21.772Z,69.15
2023-02-11T06:38:51.132Z,73.28
2023-02-11T06:41:23.252Z,62.58
2023-02-11T06:43:53.897Z,67.13
2023-02-11T06:46:23.511Z,57.78
2023-02-11T06:48:52.432Z,49.90
2023-02-11T06:51:20.990Z,55.92
2023-02-11T06:53:49.846Z,33.50
2023-02-11T06:56:21.432Z,71.93
2023-02-11T06:58:54.331Z,59.22
2023-02-11T07:01:24.648Z,79.95
2023-02-11T07:03:53.632Z,48.65
2023-02-11T07:06:28.031Z,23.10
2023-02-11T07:08:57.362Z,72.70
2023-02-11T07:11:32.826Z,68.22
2023-02-11T07:14:09.242Z,80.72
2023-02-11T07:16:39.316Z,45.70
2023-02-11T07:19:08.140Z,70.53
2023-02-11T07:21:36.649Z,77.63
2023-02-11T07:24:11.571Z,84.30
2023-02-11T07:26:40.596Z,61.10
2023-02-11T07:29:09.572Z,57.13
2023-02-11T07:31:38.303Z,73.90
2023-02-11T07:34:07.151Z,63.92
2023-02-11T07:36:36.073Z,80.40
2023-02-11T07:39:04.871Z,88.88
2023-02-11T07:41:37.633Z,54.10
2023-02-11T07:44:06.916Z,82.05
2023-02-11T07:46:36.489Z,71.25
2023-02-11T07:49:05.099Z,55.10
2023-02-11T07:51:33.773Z,62.80
2023-02-11T07:54:03.611Z,54.15
2023-02-11T07:56:33.477Z,58.45
2023-02-11T07:59:04.286Z,55.95
2023-02-11T08:01:32.976Z,72.20
2023-02-11T08:04:03.772Z,68.00
2023-02-11T08:06:35.371Z,63.35
2023-02-11T08:09:10.032Z,69.32
2023-02-11T08:11:38.858Z,62.03
2023-02-11T08:14:07.655Z,62.70
2023-02-11T08:16:39.575Z,40.28
2023-02-11T08:19:14.408Z,66.43
2023-02-11T08:21:43.807Z,44.22
2023-02-11T08:24:12.782Z,66.88
2023-02-11T08:26:41.702Z,65.72
2023-02-11T08:29:15.165Z,58.60
2023-02-11T08:31:46.728Z,45.33
2023-02-11T08:34:19.783Z,63.53
2023-02-11T08:36:49.796Z,31.20
2023-02-11T08:39:21.987Z,79.78
2023-02-11T08:41:53.546Z,55.25
2023-02-11T08:44:23.083Z,64.47
2023-02-11T08:46:52.446Z,64.90
2023-02-11T08:49:21.745Z,54.63
2023-02-11T08:51:51.108Z,60.42
2023-02-11T08:54:20.332Z,59.90
2023-02-11T08:56:52.528Z,57.10
2023-02-11T08:59:21.399Z,66.03
2023-02-11T09:01:51.120Z,57.13
2023-02-11T09:04:20.221Z,42.60
2023-02-11T09:06:49.147Z,68.47
2023-02-11T09:09:18.282Z,34.13
2023-02-11T09:11:48.677Z,57.42
2023-02-11T09:14:20.762Z,64.18
2023-02-11T09:16:50.836Z,69.85
2023-02-11T09:19:20.866Z,51.40
2023-02-11T09:21:49.733Z,57.20
2023-02-11T09:24:19.258Z,56.42
2023-02-11T09:26:48.167Z,99.43
2023-02-11T09:29:17.381Z,38.40
2023-02-11T09:31:46.090Z,41.38
2023-02-11T09:34:16.598Z,43.38
2023-02-11T09:36:45.619Z,60.63
2023-02-11T09:39:18.427Z,65.68
2023-02-11T09:42:25.463Z,61.28
2023-02-11T09:44:54.441Z,41.72
2023-02-11T09:47:31.031Z,24.65
2023-02-11T09:50:07.850Z,63.05
2023-02-11T09:52:52.372Z,47.97
2023-02-11T09:55:29.901Z,59.92
2023-02-11T09:57:59.622Z,56.25
2023-02-11T10:00:45.829Z,14.90
2023-02-11T10:03:43.542Z,46.65
2023-02-11T10:06:40.097Z,45.03
2023-02-11T10:09:45.211Z,53.47
2023-02-11T10:12:32.590Z,41.67
2023-02-11T10:15:21.482Z,48.35
2023-02-11T10:18:03.209Z,40.38
2023-02-11T10:20:59.759Z,48.28
2023-02-11T10:23:34.103Z,47.00
2023-02-11T10:26:13.547Z,60.00
2023-02-11T10:28:46.832Z,65.47
2023-02-11T10:31:36.857Z,48.00
2023-02-11T10:34:12.976Z,55.65
2023-02-11T10:36:44.889Z,45.00
2023-02-11T10:39:16.958Z,41.97
2023-02-11T10:41:51.541Z,47.33
2023-02-11T10:44:31.299Z,64.60
2023-02-11T10:47:05.957Z,51.47
2023-02-11T10:49:40.735Z,73.38
2023-02-11T10:52:36.198Z,46.55
2023-02-11T10:55:15.456Z,54.97
2023-02-11T10:58:04.652Z,60.90
2023-02-11T11:00:39.916Z,64.65
2023-02-11T11:03:20.618Z,54.42
2023-02-11T11:06:10.687Z,70.28
2023-02-11T11:08:41.264Z,65.75
2023-02-11T11:11:22.281Z,63.35
2023-02-11T11:13:53.756Z,59.58
2023-02-11T11:16:32.848Z,72.95
2023-02-11T11:19:08.622Z,89.55
2023-02-11T11:21:56.427Z,55.47
2023-02-11T11:24:45.343Z,67.75
2023-02-11T11:27:25.535Z,62.28
2023-02-11T11:29:57.365Z,97.05
2023-02-11T11:32:37.836Z,65.82
2023-02-11T11:35:22.125Z,87.85
2023-02-11T11:40:25.145Z,103.10
2023-02-11T11:43:15.179Z,96.30
2023-02-11T11:46:01.869Z,112.38
2023-02-11T11:48:43.796Z,91.85
2023-02-11T11:51:14.317Z,77.40
2023-02-11T11:54:13.083Z,91.22
2023-02-11T11:56:59.807Z,83.78
2023-02-11T11:59:29.366Z,111.63
2023-02-11T12:02:08.591Z,79.43
2023-02-11T12:05:01.514Z,92.72
2023-02-11T12:07:55.043Z,144.50
2023-02-11T12:11:00.874Z,138.65
2023-02-11T12:13:48.092Z,111.03
2023-02-11T12:16:31.258Z,89.47
2023-02-11T12:19:38.039Z,125.45
2023-02-11T12:22:22.390Z,158.23
2023-02-11T12:27:47.239Z,201.38
2023-02-11T12:30:22.700Z,130.75
2023-02-11T12:32:53.985Z,132.68
2023-02-11T12:35:36.337Z,128.15
2023-02-11T12:38:22.836Z,130.07
2023-02-11T12:41:58.289Z,109.28
2023-02-11T12:44:52.465Z,119.13
2023-02-11T12:47:52.474Z,82.05
2023-02-11T12:50:21.062Z,109.90
2023-02-11T12:53:19.471Z,105.25
2023-02-11T12:55:52.671Z,90.13
2023-02-11T12:58:35.555Z,98.80
2023-02-11T13:01:17.475Z,79.93
2023-02-11T13:03:56.069Z,72.85
2023-02-11T13:06:35.417Z,92.38
2023-02-11T13:09:12.153Z,94.72
2023-02-11T13:11:52.617Z,125.30
2023-02-11T13:14:37.557Z,139.68
2023-02-11T13:17:23.040Z,151.38
2023-02-11T13:20:00.076Z,133.13
2023-02-11T13:23:02.733Z,132.38
2023-02-11T13:25:49.474Z,95.57
2023-02-11T13:28:33.259Z,131.75
2023-02-11T13:31:07.870Z,163.82
2023-02-11T13:33:44.018Z,171.52
2023-02-11T13:36:22.250Z,158.65
2023-02-11T13:38:58.032Z,127.75
2023-02-11T13:42:02.886Z,100.00
2023-02-11T13:44:35.455Z,92.90
2023-02-11T13:47:07.710Z,80.30
2023-02-11T13:49:50.471Z,72.03
2023-02-11T13:52:33.375Z,43.78
2023-02-11T13:55:22.106Z,51.35
2023-02-11T13:58:08.930Z,43.65
2023-02-11T14:00:37.724Z,55.83
2023-02-11T14:03:47.131Z,50.67
2023-02-11T14:06:38.509Z,39.55
2023-02-11T14:09:10.129Z,43.38
2023-02-11T14:11:44.882Z,47.15
2023-02-11T14:14:24.593Z,47.47
2023-02-11T14:17:01.783Z,58.38
2023-02-11T14:19:47.248Z,49.47
2023-02-11T14:22:24.552Z,47.88
2023-02-11T14:25:04.948Z,37.17
2023-02-11T14:27:43.149Z,48.35
2023-02-11T14:30:27.816Z,42.08
2023-02-11T14:33:05.955Z,44.90
2023-02-11T14:36:06.496Z,44.08
2023-02-11T14:39:09.757Z,29.33
2023-02-11T14:41:45.092Z,37.28
2023-02-11T14:44:22.983Z,26.02
2023-02-11T14:46:54.213Z,31.75
2023-02-11T14:49:35.814Z,35.72
2023-02-11T14:52:23.640Z,29.50
2023-02-11T14:54:58.106Z,35.10
2023-02-11T14:57:28.306Z,28.52
2023-02-11T15:00:05.415Z,30.73
2023-02-11T15:02:37.812Z,33.13
2023-02-11T15:05:29.753Z,27.05
2023-02-11T15:08:03.621Z,28.63
2023-02-11T15:13:05.916Z,15.98
2023-02-11T15:15:37.706Z,27.23
2023-02-11T15:18:06.858Z,30.65
2023-02-11T15:20:36.434Z,27.70
2023-02-11T15:23:12.949Z,25.75
2023-02-11T15:25:53.470Z,26.80
2023-02-11T15:28:30.850Z,27.52
2023-02-11T15:31:13.842Z,30.38
2023-02-11T15:33:42.775Z,29.70
2023-02-11T15:36:16.828Z,40.40
2023-02-11T15:38:45.938Z,28.55
2023-02-11T15:41:37.907Z,24.35
2023-02-11T15:44:06.755Z,23.52
2023-02-11T15:46:40.901Z,31.42
2023-02-11T15:49:19.972Z,27.50
2023-02-11T15:51:49.035Z,32.90
2023-02-11T15:54:22.004Z,27.50
2023-02-11T15:56:56.180Z,29.90
2023-02-11T15:59:32.154Z,23.52
2023-02-11T16:02:17.356Z,27.70
2023-02-11T16:04:57.926Z,36.60
2023-02-11T16:07:48.715Z,25.55
2023-02-11T16:10:28.023Z,31.52
2023-02-11T16:13:05.440Z,22.50
2023-02-11T16:15:35.286Z,33.28
2023-02-11T16:18:15.973Z,26.85
2023-02-11T16:20:49.863Z,37.28
2023-02-11T16:23:25.336Z,21.67
2023-02-11T16:26:03.295Z,21.77
2023-02-11T16:28:33.180Z,28.40
2023-02-11T16:31:02.749Z,25.45
2023-02-11T16:33:32.208Z,27.33
2023-02-11T16:36:02.918Z,32.10
2023-02-11T16:38:34.120Z,31.80
2023-02-11T16:41:03.287Z,24.75
2023-02-11T16:43:34.206Z,35.20
2023-02-11T16:46:03.446Z,28.65
2023-02-11T16:48:34.268Z,25.35
2023-02-11T16:51:03.164Z,17.33
2023-02-11T16:53:33.066Z,34.70
2023-02-11T16:56:01.846Z,30.20
2023-02-11T16:58:31.012Z,21.35
2023-02-11T17:01:00.003Z,26.75
2023-02-11T17:03:30.376Z,32.45
2023-02-11T17:06:00.051Z,31.33
2023-02-11T17:08:29.160Z,27.98
2023-02-11T17:10:58.095Z,27.48
2023-02-11T17:13:26.972Z,24.60
2023-02-11T17:15:55.906Z,38.50
2023-02-11T17:18:25.458Z,36.58
2023-02-11T17:20:54.310Z,38.58
2023-02-11T17:23:22.989Z,51.50
2023-02-11T17:25:58.022Z,27.83
2023-02-11T17:28:27.474Z,45.22
2023-02-11T17:30:59.244Z,36.80
2023-02-11T17:33:28.391Z,35.83
2023-02-11T17:35:57.000Z,42.95
2023-02-11T17:38:25.629Z,32.10
2023-02-11T17:41:02.636Z,32.20
2023-02-11T17:43:32.763Z,39.13
2023-02-11T17:46:01.575Z,38.97
2023-02-11T17:48:30.320Z,44.65
2023-02-11T17:50:59.261Z,55.22
2023-02-11T17:53:28.020Z,34.33
2023-02-11T17:55:57.172Z,38.92
2023-02-11T17:58:25.821Z,42.35
2023-02-11T18:00:59.633Z,42.63
2023-02-11T18:06:01.455Z,35.35
2023-02-11T18:08:30.713Z,54.35
2023-02-11T18:10:59.323Z,44.10
2023-02-11T18:13:29.724Z,60.97
2023-02-11T18:16:04.279Z,62.33
2023-02-11T18:18:33.033Z,64.32
2023-02-11T18:21:09.750Z,47.65
2023-02-11T18:23:38.579Z,66.45
2023-02-11T18:26:13.402Z,53.22
2023-02-11T18:28:45.298Z,53.75
2023-02-11T18:31:14.998Z,45.95
2023-02-11T18:33:44.005Z,61.33
2023-02-11T18:36:16.388Z,63.25
2023-02-11T18:38:45.508Z,44.13
2023-02-11T18:41:15.417Z,57.17
2023-02-11T18:43:44.185Z,67.20
2023-02-11T18:46:15.823Z,67.15
2023-02-11T18:48:48.354Z,65.65
2023-02-11T18:51:19.380Z,53.08
2023-02-11T18:53:48.548Z,52.80
2023-02-11T18:56:20.111Z,71.07
2023-02-11T18:58:49.648Z,56.47
2023-02-11T19:01:21.539Z,47.53
2023-02-11T19:03:50.622Z,50.70
2023-02-11T19:06:26.313Z,46.40
2023-02-11T19:08:59.411Z,49.97
2023-02-11T19:11:49.574Z,42.75
2023-02-11T19:14:29.439Z,33.28
2023-02-11T19:17:00.617Z,48.65
2023-02-11T19:19:31.825Z,32.13
2023-02-11T19:22:01.860Z,42.58
2023-02-11T19:24:31.496Z,70.53
2023-02-11T19:27:04.051Z,87.40
2023-02-11T19:29:35.778Z,101.87
2023-02-11T19:32:09.467Z,89.45
2023-02-11T19:34:41.947Z,78.95
2023-02-11T19:37:13.488Z,128.15
2023-02-11T19:39:43.893Z,108.00
2023-02-11T19:42:13.402Z,130.93
2023-02-11T19:44:42.045Z,137.38
2023-02-11T19:47:11.078Z,111.55
2023-02-11T19:49:41.794Z,147.77
2023-02-11T19:52:10.450Z,82.30
2023-02-11T19:54:39.211Z,95.53
2023-02-11T19:57:07.628Z,144.13
2023-02-11T19:59:36.250Z,132.05
2023-02-11T20:02:05.073Z,121.38
2023-02-11T20:04:34.070Z,149.63
2023-02-11T20:07:02.541Z,146.02
2023-02-11T20:09:32.508Z,117.90
2023-02-11T20:12:01.318Z,115.50
2023-02-11T20:14:29.811Z,116.28
2023-02-11T20:16:58.468Z,65.10
2023-02-11T20:19:28.512Z,69.53
2023-02-11T20:21:57.569Z,118.63
2023-02-11T20:24:26.736Z,65.70
2023-02-11T20:26:58.481Z,55.70
2023-02-11T20:29:30.326Z,59.15
2023-02-11T20:31:59.155Z,78.07
2023-02-11T20:34:27.900Z,54.45
2023-02-11T20:36:57.152Z,58.70
2023-02-11T20:39:27.477Z,51.80
2023-02-11T20:41:57.105Z,64.68
2023-02-11T20:44:28.406Z,57.50
2023-02-11T20:46:59.470Z,50.00
2023-02-11T20:49:29.079Z,40.08
2023-02-11T20:52:00.946Z,95.97
2023-02-11T20:54:31.006Z,196.32
2023-02-11T20:57:00.377Z,232.98
2023-02-11T20:59:29.308Z,204.32
2023-02-11T21:01:58.010Z,308.48
2023-02-11T21:04:31.066Z,238.43
2023-02-11T21:07:02.395Z,147.63
2023-02-11T21:09:33.770Z,113.60
2023-02-11T21:12:03.067Z,61.83
2023-02-11T21:14:31.881Z,90.82
2023-02-11T21:17:00.739Z,60.17
2023-02-11T21:19:29.517Z,63.17
2023-02-11T21:22:01.283Z,45.67
2023-02-11T21:24:31.649Z,76.68
2023-02-11T21:27:00.432Z,65.32
2023-02-11T21:29:34.008Z,65.18
2023-02-11T21:32:05.690Z,74.70
2023-02-11T21:34:34.533Z,77.55
2023-02-11T21:37:04.492Z,78.68
2023-02-11T21:39:33.315Z,55.58
2023-02-11T21:42:01.954Z,53.00
2023-02-11T21:44:32.751Z,50.03
2023-02-11T21:47:03.703Z,66.60
2023-02-11T21:49:32.492Z,51.92
2023-02-11T21:52:01.356Z,59.85
2023-02-11T21:54:32.751Z,47.33
2023-02-11T21:57:03.657Z,54.38
2023-02-11T21:59:35.235Z,53.72
2023-02-11T22:02:03.769Z,46.90
2023-02-11T22:04:32.450Z,96.50
2023-02-11T22:07:01.257Z,43.22
2023-02-11T22:09:30.615Z,53.42
2023-02-11T22:11:59.735Z,105.72
2023-02-11T22:14:30.648Z,86.55
2023-02-11T22:17:03.402Z,57.30
2023-02-11T22:19:37.954Z,56.13
2023-02-11T22:22:08.756Z,34.63
2023-02-11T22:24:37.555Z,36.17
2023-02-11T22:27:06.234Z,47.50
2023-02-11T22:29:34.944Z,34.30
2023-02-11T22:32:03.637Z,39.75
2023-02-11T22:34:32.654Z,32.25
2023-02-11T22:37:02.913Z,47.63
2023-02-11T22:39:32.168Z,48.85
2023-02-11T22:42:00.888Z,44.80
2023-02-11T22:44:29.748Z,43.63
2023-02-11T22:46:58.851Z,58.25
2023-02-11T22:49:27.846Z,41.35
2023-02-11T22:51:56.573Z,39.92
2023-02-11T22:54:25.206Z,40.45
2023-02-11T22:56:54.344Z,44.65
2023-02-11T22:59:23.126Z,33.80
2023-02-11T23:01:51.901Z,47.25
2023-02-11T23:04:21.712Z,52.63
2023-02-11T23:06:51.024Z,39.85
2023-02-11T23:09:19.789Z,45.60
2023-02-11T23:11:50.103Z,45.45
2023-02-11T23:14:18.969Z,33.72
2023-02-11T23:16:50.740Z,46.00
2023-02-11T23:19:20.269Z,49.80
2023-02-11T23:21:53.407Z,39.08
2023-02-11T23:24:24.286Z,42.90
2023-02-11T23:26:52.986Z,45.60
2023-02-11T23:29:21.809Z,36.45
2023-02-11T23:31:50.811Z,53.97
2023-02-11T23:34:24.508Z,30.95
2023-02-11T23:39:22.189Z,39.85
2023-02-11T23:41:53.092Z,44.65
2023-02-11T23:44:21.977Z,53.97
2023-02-11T23:46:53.294Z,35.80
2023-02-11T23:49:22.152Z,37.83
2023-02-11T23:51:50.696Z,30.35
2023-02-11T23:54:21.798Z,44.63
2023-02-11T23:56:50.492Z,45.88
2023-02-11T23:59:19.029Z,62.97
